createdAt,value
2018-06-05T00:00:40.481Z,99825.47
2018-06-05T00:01:46.456Z,99835.94
2018-06-05T00:02:52.386Z,99832.23
2018-06-05T00:03:58.387Z,99838.35
2018-06-05T00:05:04.370Z,99832.67
2018-06-05T00:06:10.654Z,99835.16
2018-06-05T00:07:16.702Z,99836.27
2018-06-05T00:08:22.825Z,99835.12
2018-06-05T00:09:28.762Z,99834.06
2018-06-05T00:10:34.691Z,99834.20
2018-06-05T00:11:40.621Z,99834.37
2018-06-05T00:12:46.996Z,99829.19
2018-06-05T00:13:53.007Z,99832.16
2018-06-05T00:14:58.918Z,99833.98
2018-06-05T00:16:04.871Z,99832.78
2018-06-05T00:17:10.993Z,99833.27
2018-06-05T00:18:16.983Z,99836.59
2018-06-05T00:19:23.134Z,99841.07
2018-06-05T00:20:29.158Z,99831.06
2018-06-05T00:21:35.102Z,99833.36
2018-06-05T00:22:41.072Z,99836.68
2018-06-05T00:23:46.998Z,99834.16
2018-06-05T00:24:52.918Z,99831.98
2018-06-05T00:25:58.885Z,99830.97
2018-06-05T00:27:04.840Z,99829.77
2018-06-05T00:28:10.784Z,99828.26
2018-06-05T00:29:16.797Z,99833.36
2018-06-05T00:30:22.744Z,99833.17
2018-06-05T00:31:28.772Z,99832.13
2018-06-05T00:32:34.710Z,99830.44
2018-06-05T00:33:40.684Z,99829.59
2018-06-05T00:34:46.628Z,99830.25
2018-06-05T00:35:52.577Z,99824.69
2018-06-05T00:36:58.540Z,99829.33
2018-06-05T00:38:04.911Z,99829.60
2018-06-05T00:39:10.841Z,99832.56
2018-06-05T00:40:16.874Z,99831.53
2018-06-05T00:41:22.900Z,99831.67
2018-06-05T00:42:28.835Z,99836.45
2018-06-05T00:43:34.807Z,99832.11
2018-06-05T00:44:40.727Z,99834.36
2018-06-05T00:45:51.879Z,99840.30
2018-06-05T00:46:57.828Z,99839.94
2018-06-05T00:48:03.783Z,99835.28
2018-06-05T00:49:09.716Z,99839.21
2018-06-05T00:50:15.629Z,99839.83
2018-06-05T00:51:38.512Z,99839.97
2018-06-05T00:52:44.569Z,99838.80
2018-06-05T00:53:50.553Z,99841.59
2018-06-05T00:54:56.491Z,99839.06
2018-06-05T00:56:02.089Z,99843.70
2018-06-05T00:57:08.200Z,99836.36
2018-06-05T00:58:14.147Z,99840.47
2018-06-05T00:59:20.086Z,99836.78
2018-06-05T01:00:26.028Z,99838.60
2018-06-05T01:01:31.994Z,99834.26
2018-06-05T01:02:37.973Z,99830.92
2018-06-05T01:03:43.893Z,99837.22
2018-06-05T01:04:49.844Z,99831.55
2018-06-05T01:05:55.771Z,99831.84
2018-06-05T01:07:01.705Z,99828.13
2018-06-05T01:08:07.696Z,99841.08
2018-06-05T01:09:14.217Z,99836.03
2018-06-05T01:10:20.547Z,99836.19
2018-06-05T01:11:26.478Z,99836.33
2018-06-05T01:12:32.447Z,99836.45
2018-06-05T01:13:38.447Z,99834.64
2018-06-05T01:14:44.389Z,99836.33
2018-06-05T01:15:50.316Z,99837.36
2018-06-05T01:16:56.268Z,99838.91
2018-06-05T01:18:02.192Z,99833.30
2018-06-05T01:19:08.166Z,99840.48
2018-06-05T01:20:14.131Z,99835.53
2018-06-05T01:21:20.102Z,99831.77
2018-06-05T01:22:26.059Z,99836.16
2018-06-05T01:23:31.984Z,99832.72
2018-06-05T01:24:37.964Z,99833.08
2018-06-05T01:25:43.910Z,99828.80
2018-06-05T01:26:49.925Z,99829.50
2018-06-05T01:27:56.340Z,99827.20
2018-06-05T01:29:02.317Z,99838.73
2018-06-05T01:30:08.627Z,99830.23
2018-06-05T01:31:14.564Z,99838.42
2018-06-05T01:32:20.550Z,99836.55
2018-06-05T01:33:26.837Z,99841.70
2018-06-05T01:34:32.781Z,99837.94
2018-06-05T01:35:38.426Z,99837.80
2018-06-05T01:36:44.283Z,99839.81
2018-06-05T01:37:50.215Z,99838.70
2018-06-05T01:38:56.151Z,99838.05
2018-06-05T01:40:02.232Z,99832.78
2018-06-05T01:41:08.193Z,99831.80
2018-06-05T01:42:14.105Z,99833.84
2018-06-05T01:43:19.710Z,99825.37
2018-06-05T01:44:25.562Z,99833.89
2018-06-05T01:45:31.507Z,99833.41
2018-06-05T01:46:37.470Z,99830.88
2018-06-05T01:47:43.389Z,99831.86
2018-06-05T01:48:49.260Z,99834.87
2018-06-05T01:49:55.185Z,99831.53
2018-06-05T01:51:01.115Z,99830.04
2018-06-05T01:52:07.075Z,99832.56
2018-06-05T01:53:13.004Z,99830.75
2018-06-05T01:54:18.982Z,99834.59
2018-06-05T01:55:24.943Z,99830.94
2018-06-05T01:56:30.899Z,99832.26
2018-06-05T01:57:36.875Z,99829.95
2018-06-05T01:58:42.811Z,99831.64
2018-06-05T01:59:48.727Z,99827.65
2018-06-05T02:00:54.669Z,99828.48
2018-06-05T02:02:00.599Z,99820.52
2018-06-05T02:03:06.550Z,99828.19
2018-06-05T02:04:12.469Z,99829.06
2018-06-05T02:05:18.427Z,99824.09
2018-06-05T02:06:24.358Z,99826.40
2018-06-05T02:07:30.281Z,99821.44
2018-06-05T02:08:36.233Z,99828.57
2018-06-05T02:09:42.170Z,99817.72
2018-06-05T02:10:48.115Z,99823.88
2018-06-05T02:11:54.070Z,99820.38
2018-06-05T02:13:00.044Z,99822.55
2018-06-05T02:14:06.044Z,99824.37
2018-06-05T02:15:12.012Z,99822.55
2018-06-05T02:16:18.142Z,99823.88
2018-06-05T02:17:24.123Z,99818.56
2018-06-05T02:18:30.335Z,99819.19
2018-06-05T02:19:36.293Z,99824.98
2018-06-05T02:20:42.205Z,99823.80
2018-06-05T02:21:47.813Z,99818.97
2018-06-05T02:22:53.650Z,99824.64
2018-06-05T02:23:59.622Z,99822.28
2018-06-05T02:25:05.586Z,99828.80
2018-06-05T02:26:11.510Z,99816.31
2018-06-05T02:27:17.442Z,99823.31
2018-06-05T02:28:23.370Z,99816.88
2018-06-05T02:29:29.312Z,99822.87
2018-06-05T02:30:35.254Z,99824.94
2018-06-05T02:31:41.251Z,99827.78
2018-06-05T02:32:47.216Z,99832.61
2018-06-05T02:33:53.133Z,99820.64
2018-06-05T02:34:59.074Z,99830.44
2018-06-05T02:36:05.634Z,99828.63
2018-06-05T02:37:11.573Z,99833.09
2018-06-05T02:38:17.520Z,99832.13
2018-06-05T02:39:23.521Z,99828.48
2018-06-05T02:40:29.491Z,99829.81
2018-06-05T02:41:38.358Z,99826.31
2018-06-05T02:42:44.304Z,99827.59
2018-06-05T02:43:49.959Z,99826.19
2018-06-05T02:44:55.779Z,99830.31
2018-06-05T02:46:01.977Z,99825.61
2018-06-05T02:47:07.923Z,99829.95
2018-06-05T02:48:13.849Z,99829.91
2018-06-05T02:49:19.781Z,99832.56
2018-06-05T02:50:25.714Z,99828.22
2018-06-05T02:51:31.654Z,99829.55
2018-06-05T02:52:37.634Z,99829.91
2018-06-05T02:53:43.572Z,99835.71
2018-06-05T02:54:49.523Z,99825.56
2018-06-05T02:55:55.647Z,99835.36
2018-06-05T02:57:01.587Z,99832.02
2018-06-05T02:58:07.561Z,99834.68
2018-06-05T02:59:13.495Z,99833.84
2018-06-05T03:00:19.177Z,99836.85
2018-06-05T03:01:25.024Z,99839.70
2018-06-05T03:02:30.954Z,99841.03
2018-06-05T03:03:36.992Z,99839.56
2018-06-05T03:04:42.918Z,99837.26
2018-06-05T03:05:48.598Z,99841.25
2018-06-05T03:06:54.496Z,99835.92
2018-06-05T03:08:00.664Z,99836.77
2018-06-05T03:09:08.344Z,99835.09
2018-06-05T03:10:14.657Z,99837.88
2018-06-05T03:11:20.606Z,99837.53
2018-06-05T03:12:26.546Z,99837.39
2018-06-05T03:13:32.494Z,99839.20
2018-06-05T03:14:39.488Z,99846.83
2018-06-05T03:15:45.467Z,99844.04
2018-06-05T03:16:51.405Z,99844.88
2018-06-05T03:17:57.433Z,99842.22
2018-06-05T03:19:03.424Z,99838.86
2018-06-05T03:20:09.745Z,99837.26
2018-06-05T03:21:15.684Z,99837.26
2018-06-05T03:22:21.636Z,99843.55
2018-06-05T03:23:27.599Z,99848.03
2018-06-05T03:24:33.519Z,99844.74
2018-06-05T03:25:39.486Z,99849.05
2018-06-05T03:26:45.406Z,99848.21
2018-06-05T03:27:51.353Z,99841.56
2018-06-05T03:28:57.332Z,99848.56
2018-06-05T03:30:03.678Z,99848.87
2018-06-05T03:31:09.654Z,99848.52
2018-06-05T03:32:15.636Z,99843.69
2018-06-05T03:33:21.644Z,99849.13
2018-06-05T03:34:27.751Z,99854.45
2018-06-05T03:35:33.350Z,99852.80
2018-06-05T03:36:39.228Z,99854.75
2018-06-05T03:37:45.190Z,99855.24
2018-06-05T03:38:51.127Z,99854.40
2018-06-05T03:39:57.052Z,99857.22
2018-06-05T03:41:03.005Z,99856.22
2018-06-05T03:42:09.248Z,99859.72
2018-06-05T03:43:15.207Z,99862.38
2018-06-05T03:44:21.190Z,99866.72
2018-06-05T03:45:27.111Z,99862.24
2018-06-05T03:46:33.039Z,99865.73
2018-06-05T03:47:38.981Z,99863.92
2018-06-05T03:48:44.979Z,99865.09
2018-06-05T03:49:50.921Z,99863.76
2018-06-05T03:50:56.862Z,99867.12
2018-06-05T03:52:03.215Z,99868.94
2018-06-05T03:53:09.179Z,99865.44
2018-06-05T03:54:15.458Z,99869.42
2018-06-05T03:55:21.393Z,99866.77
2018-06-05T03:56:27.348Z,99869.08
2018-06-05T03:57:33.463Z,99872.73
2018-06-05T03:58:39.501Z,99872.73
2018-06-05T03:59:45.430Z,99869.73
2018-06-05T04:00:51.397Z,99870.34
2018-06-05T04:01:57.519Z,99867.34
2018-06-05T04:03:03.471Z,99874.83
2018-06-05T04:04:09.190Z,99875.18
2018-06-05T04:05:15.068Z,99874.07
2018-06-05T04:06:21.316Z,99871.89
2018-06-05T04:07:27.242Z,99872.38
2018-06-05T04:08:33.162Z,99875.72
2018-06-05T04:09:39.137Z,99875.09
2018-06-05T04:10:45.063Z,99877.45
2018-06-05T04:11:50.983Z,99880.83
2018-06-05T04:12:56.939Z,99881.53
2018-06-05T04:14:02.979Z,99881.85
2018-06-05T04:15:08.971Z,99888.27
2018-06-05T04:16:14.897Z,99889.59
2018-06-05T04:17:20.895Z,99886.93
2018-06-05T04:18:26.895Z,99889.94
2018-06-05T04:19:32.873Z,99887.12
2018-06-05T04:20:38.944Z,99891.11
2018-06-05T04:21:44.882Z,99889.64
2018-06-05T04:22:50.488Z,99894.96
2018-06-05T04:23:56.320Z,99898.46
2018-06-05T04:25:02.247Z,99893.14
2018-06-05T04:26:08.225Z,99889.16
2018-06-05T04:27:14.147Z,99899.00
2018-06-05T04:28:20.096Z,99896.20
2018-06-05T04:29:26.041Z,99899.84
2018-06-05T04:30:34.938Z,99898.87
2018-06-05T04:31:41.059Z,99902.72
2018-06-05T04:32:47.026Z,99899.89
2018-06-05T04:33:52.995Z,99903.70
2018-06-05T04:34:58.924Z,99907.88
2018-06-05T04:36:04.891Z,99907.03
2018-06-05T04:37:12.496Z,99905.43
2018-06-05T04:38:18.446Z,99907.44
2018-06-05T04:39:24.424Z,99909.55
2018-06-05T04:40:30.395Z,99902.95
2018-06-05T04:41:36.818Z,99908.50
2018-06-05T04:42:42.779Z,99902.20
2018-06-05T04:43:48.695Z,99907.56
2018-06-05T04:44:54.633Z,99909.74
2018-06-05T04:46:00.916Z,99909.57
2018-06-05T04:47:06.866Z,99912.09
2018-06-05T04:48:12.849Z,99912.28
2018-06-05T04:49:18.835Z,99916.27
2018-06-05T04:50:24.781Z,99912.02
2018-06-05T04:51:31.079Z,99912.69
2018-06-05T04:52:37.014Z,99917.03
2018-06-05T04:53:42.987Z,99912.69
2018-06-05T04:54:48.935Z,99916.98
2018-06-05T04:55:54.979Z,99913.20
2018-06-05T04:57:01.366Z,99914.67
2018-06-05T04:58:07.445Z,99915.46
2018-06-05T04:59:13.140Z,99917.77
2018-06-05T05:00:18.975Z,99925.84
2018-06-05T05:01:24.947Z,99924.45
2018-06-05T05:02:31.015Z,99926.41
2018-06-05T05:03:36.947Z,99924.05
2018-06-05T05:04:44.985Z,99926.66
2018-06-05T05:05:51.012Z,99921.12
2018-06-05T05:06:56.970Z,99931.89
2018-06-05T05:08:04.829Z,99926.87
2018-06-05T05:09:10.859Z,99927.49
2018-06-05T05:10:17.057Z,99925.13
2018-06-05T05:11:23.031Z,99928.05
2018-06-05T05:12:29.006Z,99927.56
2018-06-05T05:13:35.074Z,99930.49
2018-06-05T05:14:40.995Z,99936.30
2018-06-05T05:15:48.331Z,99932.25
2018-06-05T05:16:56.669Z,99934.78
2018-06-05T05:18:03.252Z,99932.87
2018-06-05T05:19:09.952Z,99932.25
2018-06-05T05:20:16.040Z,99936.95
2018-06-05T05:21:21.996Z,99941.26
2018-06-05T05:22:28.645Z,99933.09
2018-06-05T05:23:34.832Z,99942.89
2018-06-05T05:24:40.787Z,99942.34
2018-06-05T05:25:47.113Z,99941.86
2018-06-05T05:26:53.735Z,99945.19
2018-06-05T05:27:59.927Z,99947.23
2018-06-05T05:29:05.903Z,99951.22
2018-06-05T05:30:12.158Z,99946.74
2018-06-05T05:31:18.466Z,99943.11
2018-06-05T05:32:24.666Z,99944.77
2018-06-05T05:33:30.667Z,99942.81
2018-06-05T05:34:36.609Z,99953.94
2018-06-05T05:35:42.539Z,99951.62
2018-06-05T05:36:48.860Z,99951.14
2018-06-05T05:37:54.620Z,99949.65
2018-06-05T05:39:00.229Z,99952.08
2018-06-05T05:40:06.207Z,99949.81
2018-06-05T05:41:12.456Z,99955.22
2018-06-05T05:42:18.430Z,99952.08
2018-06-05T05:43:25.314Z,99952.75
2018-06-05T05:44:31.380Z,99958.29
2018-06-05T05:45:37.596Z,99959.62
2018-06-05T05:46:43.639Z,99954.44
2018-06-05T05:47:49.618Z,99963.87
2018-06-05T05:48:55.628Z,99960.81
2018-06-05T05:50:01.619Z,99957.38
2018-06-05T05:51:07.793Z,99958.56
2018-06-05T05:52:13.769Z,99962.56
2018-06-05T05:53:19.774Z,99961.98
2018-06-05T05:54:25.760Z,99961.44
2018-06-05T05:55:32.046Z,99962.06
2018-06-05T05:56:38.002Z,99963.39
2018-06-05T05:57:44.008Z,99964.72
2018-06-05T05:58:50.268Z,99963.55
2018-06-05T05:59:56.255Z,99962.55
2018-06-05T06:01:02.250Z,99966.53
2018-06-05T06:02:08.198Z,99970.69
2018-06-05T06:03:14.151Z,99968.16
2018-06-05T06:04:20.097Z,99966.45
2018-06-05T06:05:26.052Z,99966.25
2018-06-05T06:06:31.983Z,99964.22
2018-06-05T06:07:37.964Z,99966.52
2018-06-05T06:08:44.615Z,99968.85
2018-06-05T06:09:52.787Z,99964.02
2018-06-05T06:10:58.787Z,99965.48
2018-06-05T06:12:04.730Z,99962.11
2018-06-05T06:13:10.662Z,99970.09
2018-06-05T06:14:16.615Z,99970.19
2018-06-05T06:15:22.539Z,99969.05
2018-06-05T06:16:28.542Z,99968.07
2018-06-05T06:17:34.146Z,99963.20
2018-06-05T06:18:40.035Z,99967.24
2018-06-05T06:19:46.014Z,99967.30
2018-06-05T06:20:52.178Z,99971.21
2018-06-05T06:21:58.186Z,99966.25
2018-06-05T06:23:04.134Z,99969.61
2018-06-05T06:24:10.175Z,99971.84
2018-06-05T06:25:16.143Z,99970.70
2018-06-05T06:26:22.440Z,99973.84
2018-06-05T06:27:28.446Z,99974.06
2018-06-05T06:28:34.390Z,99974.48
2018-06-05T06:29:40.322Z,99980.20
2018-06-05T06:30:46.299Z,99975.29
2018-06-05T06:31:52.234Z,99976.13
2018-06-05T06:32:58.215Z,99982.48
2018-06-05T06:34:04.346Z,99981.86
2018-06-05T06:35:10.276Z,99979.03
2018-06-05T06:36:16.222Z,99980.84
2018-06-05T06:37:22.170Z,99974.50
2018-06-05T06:38:28.136Z,99974.98
2018-06-05T06:39:34.099Z,99980.17
2018-06-05T06:40:40.110Z,99979.52
2018-06-05T06:41:46.059Z,99976.86
2018-06-05T06:42:52.067Z,99975.39
2018-06-05T06:43:58.016Z,99983.23
2018-06-05T06:45:03.626Z,99983.42
2018-06-05T06:46:09.478Z,99982.14
2018-06-05T06:47:15.410Z,99984.89
2018-06-05T06:48:21.351Z,99987.59
2018-06-05T06:49:27.298Z,99981.30
2018-06-05T06:50:33.221Z,99988.27
2018-06-05T06:51:39.203Z,99989.33
2018-06-05T06:52:45.155Z,99984.67
2018-06-05T06:53:51.118Z,99984.05
2018-06-05T06:54:57.101Z,99983.56
2018-06-05T06:56:03.067Z,99991.69
2018-06-05T06:57:09.017Z,99988.23
2018-06-05T06:58:14.951Z,99986.48
2018-06-05T06:59:20.887Z,99979.97
2018-06-05T07:00:26.875Z,99981.30
2018-06-05T07:01:32.814Z,99977.30
2018-06-05T07:02:38.758Z,99983.47
2018-06-05T07:03:44.710Z,99983.16
2018-06-05T07:04:50.638Z,99981.83
2018-06-05T07:05:57.630Z,99983.95
2018-06-05T07:07:03.576Z,99986.95
2018-06-05T07:08:09.637Z,99991.09
2018-06-05T07:09:15.574Z,99985.18
2018-06-05T07:10:21.241Z,99984.42
2018-06-05T07:11:27.140Z,99986.81
2018-06-05T07:12:33.299Z,99986.85
2018-06-05T07:13:39.243Z,99979.21
2018-06-05T07:14:45.174Z,99984.72
2018-06-05T07:15:51.113Z,99989.91
2018-06-05T07:16:57.091Z,99988.75
2018-06-05T07:18:03.062Z,99990.93
2018-06-05T07:19:08.997Z,99989.59
2018-06-05T07:20:15.395Z,99989.45
2018-06-05T07:21:21.411Z,99995.48
2018-06-05T07:22:27.365Z,99994.69
2018-06-05T07:23:33.310Z,99994.37
2018-06-05T07:24:39.347Z,99998.09
2018-06-05T07:25:45.311Z,99993.08
2018-06-05T07:26:51.256Z,99998.41
2018-06-05T07:27:57.233Z,99998.76
2018-06-05T07:29:03.228Z,99989.82
2018-06-05T07:30:09.234Z,99993.57
2018-06-05T07:31:15.140Z,99996.27
2018-06-05T07:32:21.448Z,99991.78
2018-06-05T07:33:27.439Z,99997.29
2018-06-05T07:34:33.911Z,99999.70
2018-06-05T07:35:39.902Z,99998.61
2018-06-05T07:36:45.919Z,99998.19
2018-06-05T07:37:52.631Z,99997.52
2018-06-05T07:38:58.648Z,100004.67
2018-06-05T07:40:04.754Z,100002.50
2018-06-05T07:41:10.685Z,100002.84
2018-06-05T07:42:16.393Z,100004.67
2018-06-05T07:43:22.538Z,100002.33
2018-06-05T07:44:28.632Z,100002.67
2018-06-05T07:45:34.810Z,100006.44
2018-06-05T07:46:40.826Z,100007.77
2018-06-05T07:47:47.090Z,100005.83
2018-06-05T07:48:53.310Z,100006.93
2018-06-05T07:49:59.385Z,100007.77
2018-06-05T07:51:05.516Z,100006.75
2018-06-05T07:52:12.428Z,100004.38
2018-06-05T07:53:18.639Z,100004.38
2018-06-05T07:54:24.559Z,100007.04
2018-06-05T07:55:30.516Z,100015.03
2018-06-05T07:56:36.495Z,100015.59
2018-06-05T07:57:42.254Z,100011.52
2018-06-05T07:58:48.100Z,100018.50
2018-06-05T07:59:54.067Z,100013.86
2018-06-05T08:01:00.063Z,100014.56
2018-06-05T08:02:05.732Z,100016.08
2018-06-05T08:03:11.619Z,100021.05
2018-06-05T08:04:17.567Z,100019.72
2018-06-05T08:05:23.663Z,100018.25
2018-06-05T08:06:29.619Z,100025.27
2018-06-05T08:07:35.547Z,100018.95
2018-06-05T08:08:41.519Z,100015.93
2018-06-05T08:09:47.445Z,100020.80
2018-06-05T08:10:53.391Z,100021.67
2018-06-05T08:11:59.433Z,100028.38
2018-06-05T08:13:05.635Z,100027.70
2018-06-05T08:14:11.555Z,100027.06
2018-06-05T08:15:17.501Z,100018.92
2018-06-05T08:16:23.481Z,100032.14
2018-06-05T08:17:29.572Z,100030.48
2018-06-05T08:18:35.540Z,100031.80
2018-06-05T08:19:41.477Z,100032.11
2018-06-05T08:20:47.407Z,100032.11
2018-06-05T08:21:53.407Z,100038.44
2018-06-05T08:22:59.407Z,100037.94
2018-06-05T08:24:05.652Z,100031.45
2018-06-05T08:25:11.595Z,100037.45
2018-06-05T08:26:18.040Z,100039.80
2018-06-05T08:27:23.995Z,100038.00
2018-06-05T08:28:29.980Z,100047.19
2018-06-05T08:29:36.011Z,100046.73
2018-06-05T08:30:41.975Z,100043.36
2018-06-05T08:31:48.112Z,100045.22
2018-06-05T08:32:54.064Z,100043.54
2018-06-05T08:34:00.031Z,100049.38
2018-06-05T08:35:06.187Z,100040.17
2018-06-05T08:36:12.498Z,100043.16
2018-06-05T08:37:18.843Z,100046.61
2018-06-05T08:38:24.778Z,100049.80
2018-06-05T08:39:30.850Z,100049.63
2018-06-05T08:40:37.293Z,100050.47
2018-06-05T08:41:43.267Z,100048.47
2018-06-05T08:42:49.005Z,100047.25
2018-06-05T08:43:54.958Z,100051.39
2018-06-05T08:45:00.978Z,100050.69
2018-06-05T08:46:06.938Z,100049.67
2018-06-05T08:47:12.894Z,100052.66
2018-06-05T08:48:18.848Z,100052.28
2018-06-05T08:49:24.865Z,100054.88
2018-06-05T08:50:30.838Z,100061.55
2018-06-05T08:51:36.804Z,100064.56
2018-06-05T08:52:42.769Z,100057.41
2018-06-05T08:53:48.719Z,100057.93
2018-06-05T08:54:54.689Z,100053.30
2018-06-05T08:56:00.667Z,100053.30
2018-06-05T08:57:06.655Z,100054.63
2018-06-05T08:58:12.600Z,100052.95
2018-06-05T08:59:18.533Z,100056.07
2018-06-05T09:00:24.502Z,100058.25
2018-06-05T09:01:30.523Z,100054.59
2018-06-05T09:02:36.639Z,100050.73
2018-06-05T09:03:42.594Z,100055.93
2018-06-05T09:04:48.547Z,100054.10
2018-06-05T09:05:54.509Z,100049.79
2018-06-05T09:07:00.709Z,100056.77
2018-06-05T09:08:06.324Z,100057.27
2018-06-05T09:09:12.759Z,100059.23
2018-06-05T09:10:18.787Z,100055.93
2018-06-05T09:11:24.779Z,100053.61
2018-06-05T09:12:30.776Z,100055.96
2018-06-05T09:13:36.716Z,100055.61
2018-06-05T09:14:42.882Z,100061.16
2018-06-05T09:15:48.846Z,100060.70
2018-06-05T09:16:55.046Z,100062.91
2018-06-05T09:18:01.004Z,100060.76
2018-06-05T09:19:07.162Z,100060.30
2018-06-05T09:20:13.143Z,100061.74
2018-06-05T09:21:19.108Z,100063.77
2018-06-05T09:22:25.064Z,100061.48
2018-06-05T09:23:31.101Z,100064.16
2018-06-05T09:24:37.032Z,100060.76
2018-06-05T09:25:43.029Z,100059.42
2018-06-05T09:26:49.118Z,100067.95
2018-06-05T09:27:55.102Z,100065.11
2018-06-05T09:29:01.368Z,100067.14
2018-06-05T09:30:07.507Z,100067.28
2018-06-05T09:31:13.496Z,100064.50
2018-06-05T09:32:19.437Z,100066.22
2018-06-05T09:33:25.404Z,100068.39
2018-06-05T09:34:31.436Z,100068.22
2018-06-05T09:35:37.583Z,100067.37
2018-06-05T09:36:43.772Z,100067.23
2018-06-05T09:37:49.727Z,100065.75
2018-06-05T09:38:55.731Z,100068.10
2018-06-05T09:40:01.801Z,100071.81
2018-06-05T09:41:07.768Z,100067.14
2018-06-05T09:42:13.716Z,100070.02
2018-06-05T09:43:19.664Z,100069.20
2018-06-05T09:44:25.609Z,100071.23
2018-06-05T09:45:31.619Z,100080.42
2018-06-05T09:46:37.580Z,100073.69
2018-06-05T09:47:43.544Z,100073.12
2018-06-05T09:48:49.546Z,100069.98
2018-06-05T09:49:55.485Z,100075.00
2018-06-05T09:51:01.488Z,100076.70
2018-06-05T09:52:07.436Z,100078.08
2018-06-05T09:53:13.816Z,100077.95
2018-06-05T09:54:19.764Z,100074.80
2018-06-05T09:55:25.690Z,100079.35
2018-06-05T09:56:31.869Z,100082.53
2018-06-05T09:57:37.831Z,100075.18
2018-06-05T09:58:44.005Z,100074.55
2018-06-05T09:59:49.987Z,100077.77
2018-06-05T10:00:56.144Z,100074.92
2018-06-05T10:02:02.223Z,100075.13
2018-06-05T10:03:08.193Z,100074.98
2018-06-05T10:04:14.366Z,100084.75
2018-06-05T10:05:20.315Z,100076.93
2018-06-05T10:06:26.302Z,100075.45
2018-06-05T10:07:32.299Z,100065.61
2018-06-05T10:08:38.249Z,100072.16
2018-06-05T10:09:44.223Z,100070.36
2018-06-05T10:10:50.240Z,100069.36
2018-06-05T10:11:56.183Z,100059.53
2018-06-05T10:13:02.182Z,100065.06
2018-06-05T10:14:08.212Z,100062.04
2018-06-05T10:15:14.306Z,100060.54
2018-06-05T10:16:20.058Z,100066.07
2018-06-05T10:17:26.043Z,100066.90
2018-06-05T10:18:32.335Z,100067.23
2018-06-05T10:19:38.309Z,100057.86
2018-06-05T10:20:44.240Z,100056.52
2018-06-05T10:21:50.202Z,100059.88
2018-06-05T10:22:56.150Z,100063.03
2018-06-05T10:24:02.107Z,100057.64
2018-06-05T10:25:08.258Z,100055.83
2018-06-05T10:26:14.225Z,100064.66
2018-06-05T10:27:20.296Z,100060.95
2018-06-05T10:28:26.211Z,100058.69
2018-06-05T10:29:32.248Z,100056.78
2018-06-05T10:30:38.208Z,100058.58
2018-06-05T10:31:44.188Z,100058.97
2018-06-05T10:32:49.805Z,100058.86
2018-06-05T10:33:55.707Z,100056.58
2018-06-05T10:35:01.658Z,100057.58
2018-06-05T10:36:07.627Z,100052.34
2018-06-05T10:37:13.571Z,100057.46
2018-06-05T10:38:19.571Z,100051.70
2018-06-05T10:39:25.503Z,100053.63
2018-06-05T10:40:31.223Z,100047.12
2018-06-05T10:41:37.181Z,100044.41
2018-06-05T10:42:43.190Z,100044.77
2018-06-05T10:43:49.134Z,100042.58
2018-06-05T10:44:55.098Z,100046.16
2018-06-05T10:46:01.118Z,100041.74
2018-06-05T10:47:07.071Z,100037.03
2018-06-05T10:48:13.390Z,100038.88
2018-06-05T10:49:19.336Z,100033.51
2018-06-05T10:50:25.277Z,100043.47
2018-06-05T10:51:31.253Z,100035.86
2018-06-05T10:52:37.222Z,100040.56
2018-06-05T10:53:43.170Z,100037.49
2018-06-05T10:54:49.163Z,100043.81
2018-06-05T10:55:55.153Z,100048.30
2018-06-05T10:57:01.500Z,100043.11
2018-06-05T10:58:07.467Z,100048.30
2018-06-05T10:59:13.394Z,100050.16
2018-06-05T11:00:19.381Z,100050.37
2018-06-05T11:01:25.514Z,100051.14
2018-06-05T11:02:31.520Z,100049.52
2018-06-05T11:03:37.478Z,100051.63
2018-06-05T11:04:43.453Z,100050.37
2018-06-05T11:05:49.479Z,100051.30
2018-06-05T11:06:55.413Z,100046.76
2018-06-05T11:08:01.391Z,100050.11
2018-06-05T11:09:09.226Z,100049.70
2018-06-05T11:10:15.168Z,100050.16
2018-06-05T11:11:21.148Z,100050.57
2018-06-05T11:12:27.173Z,100049.72
2018-06-05T11:13:33.420Z,100055.89
2018-06-05T11:14:39.415Z,100045.14
2018-06-05T11:15:45.412Z,100048.84
2018-06-05T11:16:51.093Z,100045.81
2018-06-05T11:17:57.201Z,100046.83
2018-06-05T11:19:03.265Z,100051.53
2018-06-05T11:20:09.228Z,100047.83
2018-06-05T11:21:15.512Z,100053.53
2018-06-05T11:22:21.552Z,100055.12
2018-06-05T11:23:27.649Z,100050.48
2018-06-05T11:24:33.626Z,100049.94
2018-06-05T11:25:39.543Z,100054.42
2018-06-05T11:26:45.877Z,100055.26
2018-06-05T11:27:51.919Z,100046.91
2018-06-05T11:28:57.878Z,100045.95
2018-06-05T11:30:07.196Z,100039.50
2018-06-05T11:31:13.392Z,100036.70
2018-06-05T11:32:19.349Z,100043.20
2018-06-05T11:33:25.403Z,100041.86
2018-06-05T11:34:31.372Z,100042.33
2018-06-05T11:35:37.414Z,100049.41
2018-06-05T11:36:43.362Z,100046.16
2018-06-05T11:37:50.066Z,100049.60
2018-06-05T11:38:56.035Z,100044.31
2018-06-05T11:40:01.983Z,100043.52
2018-06-05T11:41:07.966Z,100043.11
2018-06-05T11:42:13.969Z,100044.41
2018-06-05T11:43:19.931Z,100041.55
2018-06-05T11:44:25.935Z,100041.59
2018-06-05T11:45:32.010Z,100033.71
2018-06-05T11:46:38.077Z,100032.04
2018-06-05T11:47:44.193Z,100036.45
2018-06-05T11:48:51.559Z,100031.15
2018-06-05T11:49:57.606Z,100027.73
2018-06-05T11:51:03.547Z,100038.37
2018-06-05T11:52:09.811Z,100036.14
2018-06-05T11:53:15.792Z,100034.24
2018-06-05T11:54:21.746Z,100040.36
2018-06-05T11:55:28.787Z,100031.20
2018-06-05T11:56:34.995Z,100030.04
2018-06-05T11:57:41.292Z,100030.04
2018-06-05T11:58:47.263Z,100033.06
2018-06-05T11:59:53.247Z,100033.73
2018-06-05T12:00:59.265Z,100035.58
2018-06-05T12:02:05.610Z,100035.56
2018-06-05T12:03:11.559Z,100028.20
2018-06-05T12:04:17.811Z,100028.18
2018-06-05T12:05:24.294Z,100024.96
2018-06-05T12:06:30.271Z,100025.26
2018-06-05T12:07:35.870Z,100024.91
2018-06-05T12:08:41.779Z,100024.24
2018-06-05T12:09:47.715Z,100025.58
2018-06-05T12:10:53.890Z,100020.75
2018-06-05T12:12:00.178Z,100016.41
2018-06-05T12:13:06.127Z,100027.94
2018-06-05T12:14:12.091Z,100018.91
2018-06-05T12:15:17.792Z,100021.43
2018-06-05T12:16:23.725Z,100017.91
2018-06-05T12:17:29.694Z,100011.75
2018-06-05T12:18:35.739Z,100016.58
2018-06-05T12:19:41.764Z,100008.51
2018-06-05T12:20:47.731Z,100006.95
2018-06-05T12:21:53.737Z,100010.26
2018-06-05T12:22:59.693Z,100007.70
2018-06-05T12:24:05.722Z,100007.17
2018-06-05T12:25:11.707Z,100002.30
2018-06-05T12:26:17.824Z,99998.95
2018-06-05T12:27:23.655Z,100001.97
2018-06-05T12:28:29.699Z,99999.34
2018-06-05T12:29:35.681Z,99994.00
2018-06-05T12:30:42.150Z,100002.75
2018-06-05T12:31:48.106Z,99997.73
2018-06-05T12:32:54.055Z,99997.95
2018-06-05T12:34:00.007Z,99995.99
2018-06-05T12:35:06.318Z,99991.80
2018-06-05T12:36:12.343Z,99998.34
2018-06-05T12:37:18.308Z,99993.95
2018-06-05T12:38:24.434Z,99989.77
2018-06-05T12:39:30.376Z,99992.11
2018-06-05T12:40:36.346Z,99997.64
2018-06-05T12:41:42.327Z,99993.81
2018-06-05T12:42:48.538Z,99993.33
2018-06-05T12:43:54.610Z,99987.44
2018-06-05T12:45:01.166Z,99992.11
2018-06-05T12:46:07.237Z,99989.07
2018-06-05T12:47:13.203Z,99990.75